sensor_id;sensor_type;location;lat;lon;timestamp;pressure;altitude;pressure_sealevel;temperature;humidity
76732;BME280;65656;51.130;13.658;2023-06-14T00:03:11;99286.47;;;10.42;93.08
76732;BME280;65656;51.130;13.658;2023-06-14T00:07:14;99284.00;;;10.24;93.93
76732;BME280;65656;51.130;13.658;2023-06-14T00:11:16;99272.72;;;10.03;95.68
76732;BME280;65656;51.130;13.658;2023-06-14T00:15:17;99278.53;;;9.73;96.78
76732;BME280;65656;51.130;13.658;2023-06-14T00:19:19;99273.03;;;9.57;98.33
76732;BME280;65656;51.130;13.658;2023-06-14T00:23:21;99276.09;;;9.43;98.88
76732;BME280;65656;51.130;13.658;2023-06-14T00:27:23;99280.75;;;9.43;99.31
76732;BME280;65656;51.130;13.658;2023-06-14T00:31:24;99280.78;;;9.31;100.00
76732;BME280;65656;51.130;13.658;2023-06-14T00:35:26;99278.00;;;9.26;100.00
76732;BME280;65656;51.130;13.658;2023-06-14T00:39:29;99271.84;;;9.19;100.00
76732;BME280;65656;51.130;13.658;2023-06-14T00:43:30;99277.47;;;9.29;100.00
76732;BME280;65656;51.130;13.658;2023-06-14T00:47:32;99283.78;;;9.30;100.00
76732;BME280;65656;51.130;13.658;2023-06-14T00:51:34;99278.28;;;9.13;100.00
76732;BME280;65656;51.130;13.658;2023-06-14T00:55:36;99278.44;;;8.94;100.00
76732;BME280;65656;51.130;13.658;2023-06-14T00:59:45;99277.16;;;8.85;100.00
76732;BME280;65656;51.130;13.658;2023-06-14T01:03:47;99269.97;;;8.68;100.00
76732;BME280;65656;51.130;13.658;2023-06-14T01:08:05;99257.59;;;8.36;100.00
76732;BME280;65656;51.130;13.658;2023-06-14T01:12:14;99260.06;;;8.26;100.00
76732;BME280;65656;51.130;13.658;2023-06-14T01:16:17;99260.16;;;8.31;100.00
76732;BME280;65656;51.130;13.658;2023-06-14T01:20:20;99255.91;;;8.12;100.00
76732;BME280;65656;51.130;13.658;2023-06-14T01:24:24;99249.16;;;8.26;100.00
76732;BME280;65656;51.130;13.658;2023-06-14T01:28:27;99252.94;;;8.25;100.00
76732;BME280;65656;51.130;13.658;2023-06-14T01:32:29;99254.47;;;8.45;100.00
76732;BME280;65656;51.130;13.658;2023-06-14T01:36:31;99260.66;;;8.52;100.00
76732;BME280;65656;51.130;13.658;2023-06-14T01:40:34;99253.41;;;8.46;100.00
76732;BME280;65656;51.130;13.658;2023-06-14T01:44:36;99252.22;;;8.30;100.00
76732;BME280;65656;51.130;13.658;2023-06-14T01:48:38;99255.69;;;8.02;100.00
76732;BME280;65656;51.130;13.658;2023-06-14T01:52:40;99258.78;;;7.94;100.00
76732;BME280;65656;51.130;13.658;2023-06-14T01:56:43;99263.16;;;7.95;100.00
76732;BME280;65656;51.130;13.658;2023-06-14T02:00:44;99263.88;;;8.02;100.00
76732;BME280;65656;51.130;13.658;2023-06-14T02:04:46;99267.28;;;7.86;100.00
76732;BME280;65656;51.130;13.658;2023-06-14T02:08:47;99262.78;;;7.79;100.00
76732;BME280;65656;51.130;13.658;2023-06-14T02:12:50;99276.81;;;7.95;100.00
76732;BME280;65656;51.130;13.658;2023-06-14T02:16:51;99283.91;;;7.96;100.00
76732;BME280;65656;51.130;13.658;2023-06-14T02:20:53;99283.41;;;7.75;100.00
76732;BME280;65656;51.130;13.658;2023-06-14T02:24:55;99278.84;;;7.46;100.00
76732;BME280;65656;51.130;13.658;2023-06-14T02:29:05;99280.72;;;7.34;100.00
76732;BME280;65656;51.130;13.658;2023-06-14T02:33:06;99285.69;;;7.37;100.00
76732;BME280;65656;51.130;13.658;2023-06-14T02:37:08;99281.91;;;7.38;100.00
76732;BME280;65656;51.130;13.658;2023-06-14T02:41:09;99281.47;;;7.41;100.00
76732;BME280;65656;51.130;13.658;2023-06-14T02:45:12;99292.06;;;7.31;100.00
76732;BME280;65656;51.130;13.658;2023-06-14T02:49:14;99279.91;;;7.03;100.00
76732;BME280;65656;51.130;13.658;2023-06-14T02:53:15;99288.66;;;7.05;100.00
76732;BME280;65656;51.130;13.658;2023-06-14T02:57:17;99286.09;;;7.10;100.00
76732;BME280;65656;51.130;13.658;2023-06-14T03:01:20;99278.31;;;7.25;100.00
76732;BME280;65656;51.130;13.658;2023-06-14T03:05:21;99295.38;;;7.21;100.00
76732;BME280;65656;51.130;13.658;2023-06-14T03:09:23;99292.28;;;7.17;100.00
76732;BME280;65656;51.130;13.658;2023-06-14T03:13:24;99290.78;;;7.03;100.00
76732;BME280;65656;51.130;13.658;2023-06-14T03:17:27;99289.78;;;6.86;100.00
76732;BME280;65656;51.130;13.658;2023-06-14T03:21:29;99291.72;;;6.97;100.00
76732;BME280;65656;51.130;13.658;2023-06-14T03:25:30;99290.41;;;6.99;100.00
76732;BME280;65656;51.130;13.658;2023-06-14T03:29:32;99298.22;;;6.96;100.00
76732;BME280;65656;51.130;13.658;2023-06-14T03:33:34;99300.47;;;6.99;100.00
76732;BME280;65656;51.130;13.658;2023-06-14T03:37:36;99315.16;;;6.98;100.00
76732;BME280;65656;51.130;13.658;2023-06-14T03:41:37;99323.50;;;7.03;100.00
76732;BME280;65656;51.130;13.658;2023-06-14T03:45:39;99327.06;;;7.15;100.00
76732;BME280;65656;51.130;13.658;2023-06-14T03:49:42;99328.16;;;7.14;100.00
76732;BME280;65656;51.130;13.658;2023-06-14T03:53:43;99328.28;;;7.19;100.00
76732;BME280;65656;51.130;13.658;2023-06-14T03:58:04;99340.09;;;7.13;100.00
76732;BME280;65656;51.130;13.658;2023-06-14T04:02:06;99332.53;;;7.15;100.00
76732;BME280;65656;51.130;13.658;2023-06-14T04:06:09;99349.19;;;7.25;100.00
76732;BME280;65656;51.130;13.658;2023-06-14T04:10:11;99351.84;;;7.44;100.00
76732;BME280;65656;51.130;13.658;2023-06-14T04:14:13;99340.81;;;7.80;100.00
76732;BME280;65656;51.130;13.658;2023-06-14T04:18:14;99352.88;;;8.26;100.00
76732;BME280;65656;51.130;13.658;2023-06-14T04:22:17;99344.94;;;8.36;100.00
76732;BME280;65656;51.130;13.658;2023-06-14T04:26:19;99344.44;;;8.63;100.00
76732;BME280;65656;51.130;13.658;2023-06-14T04:30:20;99341.41;;;9.00;100.00
76732;BME280;65656;51.130;13.658;2023-06-14T04:34:22;99350.03;;;9.20;100.00
76732;BME280;65656;51.130;13.658;2023-06-14T04:38:25;99350.91;;;9.37;100.00
76732;BME280;65656;51.130;13.658;2023-06-14T04:42:26;99363.50;;;9.38;100.00
76732;BME280;65656;51.130;13.658;2023-06-14T04:46:28;99373.56;;;9.21;100.00
76732;BME280;65656;51.130;13.658;2023-06-14T04:50:30;99373.28;;;9.34;100.00
76732;BME280;65656;51.130;13.658;2023-06-14T04:54:33;99366.72;;;9.64;100.00
76732;BME280;65656;51.130;13.658;2023-06-14T04:58:34;99371.38;;;9.80;100.00
76732;BME280;65656;51.130;13.658;2023-06-14T05:02:36;99382.59;;;10.24;100.00
76732;BME280;65656;51.130;13.658;2023-06-14T05:06:38;99379.38;;;10.66;100.00
76732;BME280;65656;51.130;13.658;2023-06-14T05:10:40;99381.06;;;10.50;100.00
76732;BME280;65656;51.130;13.658;2023-06-14T05:14:42;99383.59;;;10.90;100.00
76732;BME280;65656;51.130;13.658;2023-06-14T05:18:43;99391.81;;;10.90;100.00
76732;BME280;65656;51.130;13.658;2023-06-14T05:22:45;99387.25;;;11.18;100.00
76732;BME280;65656;51.130;13.658;2023-06-14T05:26:48;99394.91;;;11.15;100.00
76732;BME280;65656;51.130;13.658;2023-06-14T05:30:49;99394.81;;;11.10;100.00
76732;BME280;65656;51.130;13.658;2023-06-14T05:34:51;99392.47;;;10.80;100.00
76732;BME280;65656;51.130;13.658;2023-06-14T05:38:52;99393.66;;;10.84;100.00
76732;BME280;65656;51.130;13.658;2023-06-14T05:42:55;99397.31;;;10.90;100.00
76732;BME280;65656;51.130;13.658;2023-06-14T05:46:56;99389.78;;;11.02;100.00
76732;BME280;65656;51.130;13.658;2023-06-14T05:50:58;99390.63;;;11.25;100.00
76732;BME280;65656;51.130;13.658;2023-06-14T05:55:00;99396.03;;;11.20;100.00
76732;BME280;65656;51.130;13.658;2023-06-14T05:59:03;99392.06;;;11.54;100.00
76732;BME280;65656;51.130;13.658;2023-06-14T06:03:04;99398.94;;;11.79;99.96
76732;BME280;65656;51.130;13.658;2023-06-14T06:07:06;99400.91;;;12.10;97.53
76732;BME280;65656;51.130;13.658;2023-06-14T06:11:07;99396.56;;;12.14;96.87
76732;BME280;65656;51.130;13.658;2023-06-14T06:15:11;99398.31;;;12.25;98.13
76732;BME280;65656;51.130;13.658;2023-06-14T06:19:12;99410.66;;;12.60;96.52
76732;BME280;65656;51.130;13.658;2023-06-14T06:23:14;99409.81;;;12.97;93.49
76732;BME280;65656;51.130;13.658;2023-06-14T06:27:15;99410.94;;;13.01;92.97
76732;BME280;65656;51.130;13.658;2023-06-14T06:31:18;99419.72;;;13.40;91.65
76732;BME280;65656;51.130;13.658;2023-06-14T06:35:20;99411.88;;;13.79;89.28
76732;BME280;65656;51.130;13.658;2023-06-14T06:39:21;99414.66;;;14.15;87.12
76732;BME280;65656;51.130;13.658;2023-06-14T06:43:23;99410.53;;;14.22;85.72
76732;BME280;65656;51.130;13.658;2023-06-14T06:47:26;99422.94;;;14.20;84.64
76732;BME280;65656;51.130;13.658;2023-06-14T06:51:27;99419.06;;;14.06;85.28
76732;BME280;65656;51.130;13.658;2023-06-14T06:55:29;99421.88;;;14.46;82.90
76732;BME280;65656;51.130;13.658;2023-06-14T06:59:31;99423.53;;;14.73;85.25
76732;BME280;65656;51.130;13.658;2023-06-14T07:03:34;99419.94;;;14.62;78.44
76732;BME280;65656;51.130;13.658;2023-06-14T07:07:35;99425.75;;;14.76;80.48
76732;BME280;65656;51.130;13.658;2023-06-14T07:11:37;99415.22;;;14.93;78.86
76732;BME280;65656;51.130;13.658;2023-06-14T07:15:38;99427.91;;;15.04;74.51
76732;BME280;65656;51.130;13.658;2023-06-14T07:19:41;99435.03;;;15.26;74.41
76732;BME280;65656;51.130;13.658;2023-06-14T07:23:43;99422.84;;;15.42;74.95
76732;BME280;65656;51.130;13.658;2023-06-14T07:27:46;99431.06;;;15.57;73.92
76732;BME280;65656;51.130;13.658;2023-06-14T07:31:47;99424.53;;;15.98;73.63
76732;BME280;65656;51.130;13.658;2023-06-14T07:35:51;99433.63;;;16.03;71.07
76732;BME280;65656;51.130;13.658;2023-06-14T07:39:52;99440.47;;;16.11;68.06
76732;BME280;65656;51.130;13.658;2023-06-14T07:43:54;99430.81;;;16.08;68.60
76732;BME280;65656;51.130;13.658;2023-06-14T07:47:55;99440.09;;;16.28;68.58
76732;BME280;65656;51.130;13.658;2023-06-14T07:51:58;99431.50;;;16.63;66.28
76732;BME280;65656;51.130;13.658;2023-06-14T07:55:59;99441.00;;;16.86;67.19
76732;BME280;65656;51.130;13.658;2023-06-14T08:00:01;99448.69;;;16.60;67.38
76732;BME280;65656;51.130;13.658;2023-06-14T08:04:03;99444.00;;;17.43;65.40
76732;BME280;65656;51.130;13.658;2023-06-14T08:08:06;99443.28;;;17.08;65.32
76732;BME280;65656;51.130;13.658;2023-06-14T08:12:08;99448.75;;;16.89;64.72
76732;BME280;65656;51.130;13.658;2023-06-14T08:16:09;99448.84;;;16.40;65.64
76732;BME280;65656;51.130;13.658;2023-06-14T08:20:12;99456.00;;;16.41;65.19
76732;BME280;65656;51.130;13.658;2023-06-14T08:24:15;99450.16;;;16.48;66.25
76732;BME280;65656;51.130;13.658;2023-06-14T08:28:17;99443.00;;;16.81;64.81
76732;BME280;65656;51.130;13.658;2023-06-14T08:32:18;99453.88;;;17.01;63.49
76732;BME280;65656;51.130;13.658;2023-06-14T08:36:20;99455.16;;;17.14;57.34
76732;BME280;65656;51.130;13.658;2023-06-14T08:40:23;99450.16;;;17.40;59.08
76732;BME280;65656;51.130;13.658;2023-06-14T08:44:25;99455.94;;;17.43;56.29
76732;BME280;65656;51.130;13.658;2023-06-14T08:48:26;99437.13;;;16.87;54.44
76732;BME280;65656;51.130;13.658;2023-06-14T08:52:29;99448.22;;;17.11;56.02
76732;BME280;65656;51.130;13.658;2023-06-14T08:56:33;99446.19;;;16.98;53.97
76732;BME280;65656;51.130;13.658;2023-06-14T09:00:35;99451.44;;;17.23;55.37
76732;BME280;65656;51.130;13.658;2023-06-14T09:04:37;99451.91;;;17.07;55.47
76732;BME280;65656;51.130;13.658;2023-06-14T09:08:40;99453.34;;;16.99;56.26
76732;BME280;65656;51.130;13.658;2023-06-14T09:12:43;99456.47;;;16.92;57.96
76732;BME280;65656;51.130;13.658;2023-06-14T09:16:44;99453.13;;;17.19;59.10
76732;BME280;65656;51.130;13.658;2023-06-14T09:20:46;99461.34;;;17.30;61.47
76732;BME280;65656;51.130;13.658;2023-06-14T09:24:47;99454.50;;;17.94;55.59
76732;BME280;65656;51.130;13.658;2023-06-14T09:28:50;99469.97;;;17.52;55.30
76732;BME280;65656;51.130;13.658;2023-06-14T09:32:52;99460.78;;;17.80;55.64
76732;BME280;65656;51.130;13.658;2023-06-14T09:36:54;99461.66;;;17.52;55.13
76732;BME280;65656;51.130;13.658;2023-06-14T09:40:56;99461.91;;;17.26;56.59
76732;BME280;65656;51.130;13.658;2023-06-14T09:44:59;99458.81;;;17.57;56.89
76732;BME280;65656;51.130;13.658;2023-06-14T09:49:01;99457.69;;;17.58;55.85
76732;BME280;65656;51.130;13.658;2023-06-14T09:53:06;99445.69;;;18.29;54.64
76732;BME280;65656;51.130;13.658;2023-06-14T09:57:10;99439.97;;;18.40;53.70
76732;BME280;65656;51.130;13.658;2023-06-14T10:01:13;99437.44;;;18.24;54.02
76732;BME280;65656;51.130;13.658;2023-06-14T10:05:17;99436.91;;;18.22;53.43
76732;BME280;65656;51.130;13.658;2023-06-14T10:09:21;99439.38;;;18.05;54.35
76732;BME280;65656;51.130;13.658;2023-06-14T10:13:23;99444.47;;;18.35;55.17
76732;BME280;65656;51.130;13.658;2023-06-14T10:17:33;99441.31;;;18.61;52.80
76732;BME280;65656;51.130;13.658;2023-06-14T10:21:41;99453.69;;;17.69;54.10
76732;BME280;65656;51.130;13.658;2023-06-14T10:25:44;99442.69;;;18.45;53.34
76732;BME280;65656;51.130;13.658;2023-06-14T10:30:02;99450.66;;;18.84;53.08
76732;BME280;65656;51.130;13.658;2023-06-14T10:34:05;99442.97;;;17.87;53.67
76732;BME280;65656;51.130;13.658;2023-06-14T10:38:08;99440.19;;;18.43;52.89
76732;BME280;65656;51.130;13.658;2023-06-14T10:42:10;99437.56;;;17.76;54.32
76732;BME280;65656;51.130;13.658;2023-06-14T10:46:16;99436.28;;;17.88;54.38
76732;BME280;65656;51.130;13.658;2023-06-14T10:50:27;99428.44;;;18.32;54.35
76732;BME280;65656;51.130;13.658;2023-06-14T10:54:29;99426.66;;;18.74;53.47
76732;BME280;65656;51.130;13.658;2023-06-14T10:58:30;99421.94;;;18.23;54.79
76732;BME280;65656;51.130;13.658;2023-06-14T11:02:46;99422.25;;;18.73;54.39
76732;BME280;65656;51.130;13.658;2023-06-14T11:06:54;99414.94;;;19.24;53.48
76732;BME280;65656;51.130;13.658;2023-06-14T11:11:06;99418.44;;;20.34;50.22
76732;BME280;65656;51.130;13.658;2023-06-14T11:15:08;99418.25;;;19.39;53.39
76732;BME280;65656;51.130;13.658;2023-06-14T11:19:10;99428.44;;;18.32;57.31
76732;BME280;65656;51.130;13.658;2023-06-14T11:23:12;99421.78;;;18.15;57.96
76732;BME280;65656;51.130;13.658;2023-06-14T11:27:14;99422.00;;;18.18;58.25
76732;BME280;65656;51.130;13.658;2023-06-14T11:31:15;99422.44;;;17.88;58.57
76732;BME280;65656;51.130;13.658;2023-06-14T11:35:18;99427.59;;;17.75;59.74
76732;BME280;65656;51.130;13.658;2023-06-14T11:39:24;99424.75;;;17.80;59.45
76732;BME280;65656;51.130;13.658;2023-06-14T11:43:26;99420.50;;;18.07;60.00
76732;BME280;65656;51.130;13.658;2023-06-14T11:47:31;99424.69;;;17.86;60.42
76732;BME280;65656;51.130;13.658;2023-06-14T11:51:33;99409.06;;;18.14;59.90
76732;BME280;65656;51.130;13.658;2023-06-14T11:55:37;99425.72;;;18.27;60.41
76732;BME280;65656;51.130;13.658;2023-06-14T11:59:39;99424.03;;;18.31;61.04
76732;BME280;65656;51.130;13.658;2023-06-14T12:03:47;99412.41;;;18.29;60.80
76732;BME280;65656;51.130;13.658;2023-06-14T12:07:48;99412.41;;;18.29;59.67
76732;BME280;65656;51.130;13.658;2023-06-14T12:11:59;99406.09;;;19.35;54.41
76732;BME280;65656;51.130;13.658;2023-06-14T12:16:01;99401.38;;;19.77;53.45
76732;BME280;65656;51.130;13.658;2023-06-14T12:20:07;99405.47;;;19.11;55.76
76732;BME280;65656;51.130;13.658;2023-06-14T12:24:09;99419.84;;;18.15;58.74
76732;BME280;65656;51.130;13.658;2023-06-14T12:28:14;99418.69;;;17.78;59.06
76732;BME280;65656;51.130;13.658;2023-06-14T12:32:15;99411.66;;;18.24;61.42
76732;BME280;65656;51.130;13.658;2023-06-14T12:36:17;99410.34;;;18.35;59.95
76732;BME280;65656;51.130;13.658;2023-06-14T12:40:19;99412.19;;;18.07;61.08
76732;BME280;65656;51.130;13.658;2023-06-14T12:44:21;99416.47;;;17.99;62.89
76732;BME280;65656;51.130;13.658;2023-06-14T12:48:23;99415.28;;;18.76;60.30
76732;BME280;65656;51.130;13.658;2023-06-14T12:52:24;99413.66;;;19.62;56.70
76732;BME280;65656;51.130;13.658;2023-06-14T12:56:26;99405.81;;;20.73;53.22
76732;BME280;65656;51.130;13.658;2023-06-14T13:00:29;99396.88;;;22.30;48.45
76732;BME280;65656;51.130;13.658;2023-06-14T13:04:30;99399.88;;;21.67;49.21
76732;BME280;65656;51.130;13.658;2023-06-14T13:08:32;99381.75;;;22.13;46.18
76732;BME280;65656;51.130;13.658;2023-06-14T13:12:33;99384.06;;;23.19;44.43
76732;BME280;65656;51.130;13.658;2023-06-14T13:16:36;99376.88;;;21.62;47.62
76732;BME280;65656;51.130;13.658;2023-06-14T13:20:37;99394.38;;;19.80;54.18
76732;BME280;65656;51.130;13.658;2023-06-14T13:24:39;99391.34;;;18.93;59.84
76732;BME280;65656;51.130;13.658;2023-06-14T13:28:40;99382.78;;;20.58;53.74
76732;BME280;65656;51.130;13.658;2023-06-14T13:32:43;99384.84;;;22.55;48.45
76732;BME280;65656;51.130;13.658;2023-06-14T13:36:48;99381.78;;;24.84;40.95
76732;BME280;65656;51.130;13.658;2023-06-14T13:40:50;99360.34;;;22.87;43.79
76732;BME280;65656;51.130;13.658;2023-06-14T13:44:51;99371.75;;;22.21;46.68
76732;BME280;65656;51.130;13.658;2023-06-14T13:48:54;99376.38;;;21.11;51.10
76732;BME280;65656;51.130;13.658;2023-06-14T13:52:55;99382.50;;;19.88;53.43
76732;BME280;65656;51.130;13.658;2023-06-14T13:56:57;99377.31;;;20.76;48.24
76732;BME280;65656;51.130;13.658;2023-06-14T14:00:58;99380.34;;;20.43;50.78
76732;BME280;65656;51.130;13.658;2023-06-14T14:05:01;99369.06;;;22.85;44.57
76732;BME280;65656;51.130;13.658;2023-06-14T14:09:03;99368.06;;;24.70;42.13
76732;BME280;65656;51.130;13.658;2023-06-14T14:13:04;99376.19;;;22.13;46.62
76732;BME280;65656;51.130;13.658;2023-06-14T14:17:06;99375.56;;;20.57;51.01
76732;BME280;65656;51.130;13.658;2023-06-14T14:21:09;99378.34;;;19.63;53.98
76732;BME280;65656;51.130;13.658;2023-06-14T14:25:10;99367.47;;;22.15;47.83
76732;BME280;65656;51.130;13.658;2023-06-14T14:29:12;99363.34;;;20.98;48.85
76732;BME280;65656;51.130;13.658;2023-06-14T14:33:14;99363.94;;;21.66;47.34
76732;BME280;65656;51.130;13.658;2023-06-14T14:37:16;99363.88;;;23.13;44.19
76732;BME280;65656;51.130;13.658;2023-06-14T14:41:18;99352.47;;;24.49;41.84
76732;BME280;65656;51.130;13.658;2023-06-14T14:45:19;99352.66;;;25.59;39.77
76732;BME280;65656;51.130;13.658;2023-06-14T14:49:21;99352.13;;;24.29;38.86
76732;BME280;65656;51.130;13.658;2023-06-14T14:53:24;99355.47;;;24.43;40.15
76732;BME280;65656;51.130;13.658;2023-06-14T14:57:25;99345.41;;;25.82;36.43
76732;BME280;65656;51.130;13.658;2023-06-14T15:01:27;99343.25;;;23.85;39.20
76732;BME280;65656;51.130;13.658;2023-06-14T15:05:29;99355.09;;;24.66;37.92
76732;BME280;65656;51.130;13.658;2023-06-14T15:09:31;99347.81;;;24.53;37.48
76732;BME280;65656;51.130;13.658;2023-06-14T15:13:33;99347.25;;;21.26;44.70
76732;BME280;65656;51.130;13.658;2023-06-14T15:17:35;99345.47;;;23.12;39.64
76732;BME280;65656;51.130;13.658;2023-06-14T15:21:36;99344.47;;;22.01;42.47
76732;BME280;65656;51.130;13.658;2023-06-14T15:25:39;99339.66;;;23.17;39.05
76732;BME280;65656;51.130;13.658;2023-06-14T15:29:41;99337.00;;;25.33;35.28
76732;BME280;65656;51.130;13.658;2023-06-14T15:33:43;99340.59;;;24.10;35.39
76732;BME280;65656;51.130;13.658;2023-06-14T15:37:44;99335.97;;;24.14;36.59
76732;BME280;65656;51.130;13.658;2023-06-14T15:41:47;99340.09;;;22.98;39.12
76732;BME280;65656;51.130;13.658;2023-06-14T15:45:49;99339.28;;;22.98;39.25
76732;BME280;65656;51.130;13.658;2023-06-14T15:49:50;99346.25;;;23.51;36.78
76732;BME280;65656;51.130;13.658;2023-06-14T15:53:52;99343.53;;;23.04;36.00
76732;BME280;65656;51.130;13.658;2023-06-14T15:57:54;99332.75;;;25.02;34.21
76732;BME280;65656;51.130;13.658;2023-06-14T16:01:56;99333.09;;;25.99;31.63
76732;BME280;65656;51.130;13.658;2023-06-14T16:05:57;99326.78;;;26.86;31.44
76732;BME280;65656;51.130;13.658;2023-06-14T16:09:59;99322.69;;;27.97;29.07
76732;BME280;65656;51.130;13.658;2023-06-14T16:14:02;99327.63;;;25.66;32.37
76732;BME280;65656;51.130;13.658;2023-06-14T16:18:03;99321.81;;;25.10;33.76
76732;BME280;65656;51.130;13.658;2023-06-14T16:22:05;99320.16;;;26.94;31.32
76732;BME280;65656;51.130;13.658;2023-06-14T16:26:10;99325.88;;;25.86;31.48
76732;BME280;65656;51.130;13.658;2023-06-14T16:30:13;99325.28;;;25.68;32.41
76732;BME280;65656;51.130;13.658;2023-06-14T16:34:15;99319.78;;;28.48;28.45
76732;BME280;65656;51.130;13.658;2023-06-14T16:38:17;99337.09;;;22.31;37.63
76732;BME280;65656;51.130;13.658;2023-06-14T16:42:18;99329.00;;;21.60;39.71
76732;BME280;65656;51.130;13.658;2023-06-14T16:46:29;99339.34;;;20.80;39.49
76732;BME280;65656;51.130;13.658;2023-06-14T16:50:30;99343.88;;;20.45;41.78
76732;BME280;65656;51.130;13.658;2023-06-14T16:54:32;99357.06;;;19.94;42.74
76732;BME280;65656;51.130;13.658;2023-06-14T16:58:33;99360.59;;;19.86;43.28
76732;BME280;65656;51.130;13.658;2023-06-14T17:02:36;99360.53;;;19.64;43.93
76732;BME280;65656;51.130;13.658;2023-06-14T17:06:38;99361.03;;;19.38;45.05
76732;BME280;65656;51.130;13.658;2023-06-14T17:10:40;99359.59;;;19.27;44.93
76732;BME280;65656;51.130;13.658;2023-06-14T17:14:42;99356.69;;;19.05;46.48
76732;BME280;65656;51.130;13.658;2023-06-14T17:18:44;99364.94;;;19.10;46.82
76732;BME280;65656;51.130;13.658;2023-06-14T17:22:46;99358.56;;;19.09;47.63
76732;BME280;65656;51.130;13.658;2023-06-14T17:26:47;99361.69;;;18.75;49.38
76732;BME280;65656;51.130;13.658;2023-06-14T17:30:50;99369.16;;;18.61;49.98
76732;BME280;65656;51.130;13.658;2023-06-14T17:34:53;99367.09;;;18.53;50.69
76732;BME280;65656;51.130;13.658;2023-06-14T17:38:54;99375.31;;;18.58;51.09
76732;BME280;65656;51.130;13.658;2023-06-14T17:42:57;99373.22;;;18.50;52.00
76732;BME280;65656;51.130;13.658;2023-06-14T17:46:59;99364.91;;;18.50;52.00
76732;BME280;65656;51.130;13.658;2023-06-14T17:51:02;99362.63;;;18.38;52.64
76732;BME280;65656;51.130;13.658;2023-06-14T17:55:05;99372.53;;;18.25;53.19
76732;BME280;65656;51.130;13.658;2023-06-14T17:59:07;99371.56;;;17.97;54.61
76732;BME280;65656;51.130;13.658;2023-06-14T18:03:08;99374.19;;;17.89;53.87
76732;BME280;65656;51.130;13.658;2023-06-14T18:07:11;99375.53;;;17.72;54.19
76732;BME280;65656;51.130;13.658;2023-06-14T18:11:13;99385.66;;;17.58;55.70
76732;BME280;65656;51.130;13.658;2023-06-14T18:15:14;99382.56;;;17.41;57.76
76732;BME280;65656;51.130;13.658;2023-06-14T18:19:16;99391.22;;;17.10;60.13
76732;BME280;65656;51.130;13.658;2023-06-14T18:23:19;99393.00;;;17.01;59.32
76732;BME280;65656;51.130;13.658;2023-06-14T18:27:21;99394.75;;;16.92;60.26
76732;BME280;65656;51.130;13.658;2023-06-14T18:31:22;99398.19;;;16.79;63.08
76732;BME280;65656;51.130;13.658;2023-06-14T18:35:24;99396.66;;;16.62;63.31
76732;BME280;65656;51.130;13.658;2023-06-14T18:39:26;99406.19;;;16.51;63.95
76732;BME280;65656;51.130;13.658;2023-06-14T18:43:28;99407.06;;;16.41;64.94
76732;BME280;65656;51.130;13.658;2023-06-14T18:47:29;99405.19;;;16.37;64.12
76732;BME280;65656;51.130;13.658;2023-06-14T18:51:31;99409.63;;;16.33;65.38
76732;BME280;65656;51.130;13.658;2023-06-14T18:55:34;99414.09;;;16.29;65.95
76732;BME280;65656;51.130;13.658;2023-06-14T18:59:35;99411.72;;;16.12;66.76
76732;BME280;65656;51.130;13.658;2023-06-14T19:03:37;99408.50;;;15.95;66.19
76732;BME280;65656;51.130;13.658;2023-06-14T19:07:38;99418.28;;;15.77;68.34
76732;BME280;65656;51.130;13.658;2023-06-14T19:11:41;99420.00;;;15.68;70.31
76732;BME280;65656;51.130;13.658;2023-06-14T19:15:42;99427.75;;;15.66;71.13
76732;BME280;65656;51.130;13.658;2023-06-14T19:19:44;99425.00;;;15.50;74.17
76732;BME280;65656;51.130;13.658;2023-06-14T19:23:45;99425.06;;;15.30;75.07
76732;BME280;65656;51.130;13.658;2023-06-14T19:27:49;99433.41;;;15.10;76.32
76732;BME280;65656;51.130;13.658;2023-06-14T19:31:50;99427.38;;;14.92;78.17
76732;BME280;65656;51.130;13.658;2023-06-14T19:35:52;99440.63;;;14.55;80.53
76732;BME280;65656;51.130;13.658;2023-06-14T19:39:53;99435.63;;;14.31;81.94
76732;BME280;65656;51.130;13.658;2023-06-14T19:43:56;99435.06;;;14.14;83.71
76732;BME280;65656;51.130;13.658;2023-06-14T19:47:58;99436.97;;;14.08;83.33
76732;BME280;65656;51.130;13.658;2023-06-14T19:52:11;99439.47;;;14.10;83.09
76732;BME280;65656;51.130;13.658;2023-06-14T19:56:13;99441.13;;;14.11;81.39
76732;BME280;65656;51.130;13.658;2023-06-14T20:00:16;99440.59;;;14.24;81.38
76732;BME280;65656;51.130;13.658;2023-06-14T20:04:18;99459.84;;;13.93;84.82
76732;BME280;65656;51.130;13.658;2023-06-14T20:08:19;99462.78;;;13.72;87.86
76732;BME280;65656;51.130;13.658;2023-06-14T20:12:21;99467.69;;;13.64;87.59
76732;BME280;65656;51.130;13.658;2023-06-14T20:16:24;99462.97;;;13.50;87.64
76732;BME280;65656;51.130;13.658;2023-06-14T20:20:25;99461.91;;;13.66;87.81
76732;BME280;65656;51.130;13.658;2023-06-14T20:24:27;99456.19;;;13.83;85.99
76732;BME280;65656;51.130;13.658;2023-06-14T20:28:28;99469.44;;;13.91;85.71
76732;BME280;65656;51.130;13.658;2023-06-14T20:32:31;99463.56;;;13.67;86.15
76732;BME280;65656;51.130;13.658;2023-06-14T20:36:33;99464.06;;;13.49;87.74
76732;BME280;65656;51.130;13.658;2023-06-14T20:40:34;99470.00;;;13.30;88.58
76732;BME280;65656;51.130;13.658;2023-06-14T20:44:36;99467.16;;;13.15;90.51
76732;BME280;65656;51.130;13.658;2023-06-14T20:48:39;99470.75;;;12.83;92.88
76732;BME280;65656;51.130;13.658;2023-06-14T20:52:42;99472.34;;;12.74;91.90
76732;BME280;65656;51.130;13.658;2023-06-14T20:56:44;99470.09;;;12.66;92.28
76732;BME280;65656;51.130;13.658;2023-06-14T21:00:46;99472.69;;;12.51;92.23
76732;BME280;65656;51.130;13.658;2023-06-14T21:04:49;99467.91;;;12.68;91.27
76732;BME280;65656;51.130;13.658;2023-06-14T21:08:50;99473.28;;;12.53;91.85